sensor_id;sensor_type;location;lat;lon;timestamp;P1;durP1;ratioP1;P2;durP2;ratioP2
75920;SDS011;64600;44.062;2.986;2022-12-07T12:53:21;21.20;;;7.63;;
75920;SDS011;64600;44.062;2.986;2022-12-07T12:55:52;12.93;;;6.32;;
75920;SDS011;64600;44.062;2.986;2022-12-07T12:58:32;10.93;;;6.00;;
75920;SDS011;64600;44.062;2.986;2022-12-07T13:04:01;11.30;;;5.70;;
75920;SDS011;64600;44.062;2.986;2022-12-07T13:08:54;11.75;;;5.40;;
75920;SDS011;64600;44.062;2.986;2022-12-07T13:11:32;10.35;;;5.50;;
75920;SDS011;64600;44.062;2.986;2022-12-07T13:17:06;12.88;;;6.93;;
75920;SDS011;64600;44.062;2.986;2022-12-07T13:25:38;14.85;;;6.43;;
75920;SDS011;64600;44.062;2.986;2022-12-07T13:28:17;10.82;;;6.13;;
75920;SDS011;64600;44.062;2.986;2022-12-07T13:31:00;12.07;;;6.32;;
75920;SDS011;64600;44.062;2.986;2022-12-07T13:33:28;11.85;;;6.25;;
75920;SDS011;64600;44.062;2.986;2022-12-07T13:35:54;12.32;;;6.88;;
75920;SDS011;64600;44.062;2.986;2022-12-07T13:38:23;12.13;;;6.07;;
75920;SDS011;64600;44.062;2.986;2022-12-07T13:43:59;13.10;;;7.65;;
75920;SDS011;64600;44.062;2.986;2022-12-07T13:46:31;10.45;;;6.22;;
75920;SDS011;64600;44.062;2.986;2022-12-07T13:49:19;18.27;;;7.45;;
75920;SDS011;64600;44.062;2.986;2022-12-07T13:51:55;14.02;;;7.60;;
75920;SDS011;64600;44.062;2.986;2022-12-07T13:54:56;19.55;;;10.70;;
75920;SDS011;64600;44.062;2.986;2022-12-07T13:57:27;19.23;;;10.20;;
75920;SDS011;64600;44.062;2.986;2022-12-07T13:59:55;16.88;;;9.45;;
75920;SDS011;64600;44.062;2.986;2022-12-07T14:02:26;12.18;;;7.05;;
75920;SDS011;64600;44.062;2.986;2022-12-07T14:05:06;17.30;;;9.13;;
75920;SDS011;64600;44.062;2.986;2022-12-07T14:10:27;17.77;;;8.02;;
75920;SDS011;64600;44.062;2.986;2022-12-07T14:12:58;13.65;;;7.95;;
75920;SDS011;64600;44.062;2.986;2022-12-07T14:15:31;14.88;;;7.30;;
75920;SDS011;64600;44.062;2.986;2022-12-07T14:17:59;14.48;;;6.22;;
75920;SDS011;64600;44.062;2.986;2022-12-07T14:20:32;12.77;;;6.68;;
75920;SDS011;64600;44.062;2.986;2022-12-07T14:23:03;14.80;;;8.00;;
75920;SDS011;64600;44.062;2.986;2022-12-07T14:26:03;15.85;;;8.98;;
75920;SDS011;64600;44.062;2.986;2022-12-07T14:28:31;20.75;;;9.50;;
75920;SDS011;64600;44.062;2.986;2022-12-07T14:30:58;20.88;;;10.20;;
75920;SDS011;64600;44.062;2.986;2022-12-07T14:33:24;18.30;;;10.35;;
75920;SDS011;64600;44.062;2.986;2022-12-07T14:35:49;17.20;;;8.73;;
75920;SDS011;64600;44.062;2.986;2022-12-07T14:38:20;16.40;;;8.15;;
75920;SDS011;64600;44.062;2.986;2022-12-07T14:40:46;14.50;;;8.13;;
75920;SDS011;64600;44.062;2.986;2022-12-07T14:43:13;15.40;;;8.45;;
75920;SDS011;64600;44.062;2.986;2022-12-07T14:45:40;14.07;;;7.22;;
75920;SDS011;64600;44.062;2.986;2022-12-07T14:48:10;14.05;;;7.65;;
75920;SDS011;64600;44.062;2.986;2022-12-07T14:50:37;18.17;;;7.38;;
75920;SDS011;64600;44.062;2.986;2022-12-07T14:53:15;11.32;;;6.13;;
75920;SDS011;64600;44.062;2.986;2022-12-07T14:55:42;11.82;;;5.82;;
75920;SDS011;64600;44.062;2.986;2022-12-07T14:58:15;13.15;;;6.55;;
75920;SDS011;64600;44.062;2.986;2022-12-07T15:00:41;11.05;;;6.18;;
75920;SDS011;64600;44.062;2.986;2022-12-07T15:03:07;10.95;;;5.97;;
75920;SDS011;64600;44.062;2.986;2022-12-07T15:05:33;9.82;;;5.10;;
75920;SDS011;64600;44.062;2.986;2022-12-07T15:07:58;7.57;;;4.50;;
75920;SDS011;64600;44.062;2.986;2022-12-07T15:10:25;5.65;;;3.30;;
75920;SDS011;64600;44.062;2.986;2022-12-07T15:12:55;6.07;;;3.47;;
75920;SDS011;64600;44.062;2.986;2022-12-07T15:15:41;5.20;;;3.22;;
75920;SDS011;64600;44.062;2.986;2022-12-07T15:18:06;7.05;;;3.47;;
75920;SDS011;64600;44.062;2.986;2022-12-07T15:20:32;6.53;;;3.70;;
75920;SDS011;64600;44.062;2.986;2022-12-07T15:22:58;8.75;;;3.47;;
75920;SDS011;64600;44.062;2.986;2022-12-07T15:25:23;5.10;;;3.22;;
75920;SDS011;64600;44.062;2.986;2022-12-07T15:27:49;9.18;;;3.53;;
75920;SDS011;64600;44.062;2.986;2022-12-07T15:30:15;6.75;;;3.45;;
75920;SDS011;64600;44.062;2.986;2022-12-07T15:32:40;9.05;;;4.57;;
75920;SDS011;64600;44.062;2.986;2022-12-07T15:35:06;6.97;;;3.90;;
75920;SDS011;64600;44.062;2.986;2022-12-07T15:37:32;16.80;;;6.15;;
75920;SDS011;64600;44.062;2.986;2022-12-07T15:39:58;10.45;;;5.30;;
75920;SDS011;64600;44.062;2.986;2022-12-07T15:42:23;9.63;;;4.65;;
75920;SDS011;64600;44.062;2.986;2022-12-07T15:44:49;9.18;;;4.72;;
75920;SDS011;64600;44.062;2.986;2022-12-07T15:47:40;6.10;;;3.22;;
75920;SDS011;64600;44.062;2.986;2022-12-07T15:50:08;10.90;;;5.35;;
75920;SDS011;64600;44.062;2.986;2022-12-07T15:52:36;7.90;;;4.43;;
75920;SDS011;64600;44.062;2.986;2022-12-07T15:55:02;3.92;;;2.63;;
75920;SDS011;64600;44.062;2.986;2022-12-07T15:57:28;5.28;;;3.63;;
75920;SDS011;64600;44.062;2.986;2022-12-07T15:59:54;7.32;;;4.43;;
75920;SDS011;64600;44.062;2.986;2022-12-07T16:02:20;12.25;;;4.32;;
75920;SDS011;64600;44.062;2.986;2022-12-07T16:04:47;5.70;;;3.67;;
75920;SDS011;64600;44.062;2.986;2022-12-07T16:07:13;10.45;;;5.00;;
75920;SDS011;64600;44.062;2.986;2022-12-07T16:09:41;19.30;;;9.35;;
75920;SDS011;64600;44.062;2.986;2022-12-07T16:12:10;61.45;;;30.60;;
75920;SDS011;64600;44.062;2.986;2022-12-07T16:14:36;16.40;;;8.77;;
75920;SDS011;64600;44.062;2.986;2022-12-07T16:17:02;24.58;;;12.13;;
75920;SDS011;64600;44.062;2.986;2022-12-07T16:21:55;20.25;;;10.40;;
75920;SDS011;64600;44.062;2.986;2022-12-07T16:24:20;21.70;;;10.88;;
75920;SDS011;64600;44.062;2.986;2022-12-07T16:26:46;15.20;;;8.40;;
75920;SDS011;64600;44.062;2.986;2022-12-07T16:29:12;10.23;;;6.13;;
75920;SDS011;64600;44.062;2.986;2022-12-07T16:31:38;9.67;;;5.83;;
75920;SDS011;64600;44.062;2.986;2022-12-07T16:34:03;11.55;;;6.72;;
75920;SDS011;64600;44.062;2.986;2022-12-07T16:36:29;10.02;;;5.35;;
75920;SDS011;64600;44.062;2.986;2022-12-07T16:38:55;10.52;;;4.85;;
75920;SDS011;64600;44.062;2.986;2022-12-07T16:41:20;7.95;;;3.67;;
75920;SDS011;64600;44.062;2.986;2022-12-07T16:43:46;7.18;;;3.80;;
75920;SDS011;64600;44.062;2.986;2022-12-07T16:46:11;8.15;;;3.83;;
75920;SDS011;64600;44.062;2.986;2022-12-07T16:48:38;7.25;;;3.80;;
75920;SDS011;64600;44.062;2.986;2022-12-07T16:51:05;10.23;;;6.93;;
75920;SDS011;64600;44.062;2.986;2022-12-07T16:53:36;8.10;;;4.88;;
75920;SDS011;64600;44.062;2.986;2022-12-07T16:56:02;13.38;;;5.95;;
75920;SDS011;64600;44.062;2.986;2022-12-07T16:58:28;13.18;;;7.55;;
75920;SDS011;64600;44.062;2.986;2022-12-07T17:00:55;8.38;;;4.32;;
75920;SDS011;64600;44.062;2.986;2022-12-07T17:03:20;11.20;;;6.90;;
75920;SDS011;64600;44.062;2.986;2022-12-07T17:05:46;8.75;;;5.15;;
75920;SDS011;64600;44.062;2.986;2022-12-07T17:08:12;9.50;;;5.72;;
75920;SDS011;64600;44.062;2.986;2022-12-07T17:10:39;16.65;;;6.55;;
75920;SDS011;64600;44.062;2.986;2022-12-07T17:13:06;16.75;;;7.80;;
75920;SDS011;64600;44.062;2.986;2022-12-07T17:18:23;44.60;;;21.58;;
75920;SDS011;64600;44.062;2.986;2022-12-07T17:20:48;52.60;;;22.00;;
75920;SDS011;64600;44.062;2.986;2022-12-07T17:23:14;42.67;;;19.88;;
75920;SDS011;64600;44.062;2.986;2022-12-07T17:25:39;48.05;;;19.48;;
75920;SDS011;64600;44.062;2.986;2022-12-07T17:28:05;30.88;;;15.18;;
75920;SDS011;64600;44.062;2.986;2022-12-07T17:30:31;34.55;;;16.15;;
75920;SDS011;64600;44.062;2.986;2022-12-07T17:32:56;37.50;;;16.25;;
75920;SDS011;64600;44.062;2.986;2022-12-07T17:35:22;31.67;;;15.27;;
75920;SDS011;64600;44.062;2.986;2022-12-07T17:37:47;30.05;;;14.88;;
75920;SDS011;64600;44.062;2.986;2022-12-07T17:40:14;24.38;;;11.20;;
75920;SDS011;64600;44.062;2.986;2022-12-07T17:42:40;14.82;;;8.30;;
75920;SDS011;64600;44.062;2.986;2022-12-07T17:45:11;36.92;;;16.25;;
75920;SDS011;64600;44.062;2.986;2022-12-07T17:47:37;43.60;;;21.75;;
75920;SDS011;64600;44.062;2.986;2022-12-07T17:50:03;40.25;;;19.40;;
75920;SDS011;64600;44.062;2.986;2022-12-07T17:52:30;46.35;;;23.58;;
75920;SDS011;64600;44.062;2.986;2022-12-07T17:55:14;51.40;;;26.13;;
75920;SDS011;64600;44.062;2.986;2022-12-07T17:57:40;45.42;;;23.05;;
75920;SDS011;64600;44.062;2.986;2022-12-07T18:00:06;103.43;;;48.30;;
75920;SDS011;64600;44.062;2.986;2022-12-07T18:02:32;65.05;;;30.33;;
75920;SDS011;64600;44.062;2.986;2022-12-07T18:04:58;56.38;;;26.27;;
75920;SDS011;64600;44.062;2.986;2022-12-07T18:07:23;40.40;;;20.38;;
75920;SDS011;64600;44.062;2.986;2022-12-07T18:09:49;153.20;;;86.80;;
75920;SDS011;64600;44.062;2.986;2022-12-07T18:12:14;76.20;;;40.45;;
75920;SDS011;64600;44.062;2.986;2022-12-07T18:14:40;37.88;;;20.10;;
75920;SDS011;64600;44.062;2.986;2022-12-07T18:17:05;53.72;;;30.17;;
75920;SDS011;64600;44.062;2.986;2022-12-07T18:19:31;42.85;;;22.77;;
75920;SDS011;64600;44.062;2.986;2022-12-07T18:21:57;31.38;;;17.58;;
75920;SDS011;64600;44.062;2.986;2022-12-07T18:24:23;37.45;;;20.38;;
75920;SDS011;64600;44.062;2.986;2022-12-07T18:26:48;38.08;;;20.90;;
75920;SDS011;64600;44.062;2.986;2022-12-07T18:29:16;29.60;;;16.73;;
75920;SDS011;64600;44.062;2.986;2022-12-07T18:31:42;20.15;;;11.27;;
75920;SDS011;64600;44.062;2.986;2022-12-07T18:34:13;23.63;;;11.88;;
75920;SDS011;64600;44.062;2.986;2022-12-07T18:36:41;19.70;;;11.00;;
75920;SDS011;64600;44.062;2.986;2022-12-07T18:39:07;21.63;;;12.02;;
75920;SDS011;64600;44.062;2.986;2022-12-07T18:41:33;15.73;;;9.15;;
75920;SDS011;64600;44.062;2.986;2022-12-07T18:43:59;14.23;;;7.47;;
75920;SDS011;64600;44.062;2.986;2022-12-07T18:46:25;19.15;;;10.43;;
75920;SDS011;64600;44.062;2.986;2022-12-07T18:48:51;21.70;;;11.48;;
75920;SDS011;64600;44.062;2.986;2022-12-07T18:51:17;14.18;;;7.82;;
75920;SDS011;64600;44.062;2.986;2022-12-07T18:56:13;13.25;;;5.70;;
75920;SDS011;64600;44.062;2.986;2022-12-07T18:58:43;13.20;;;6.65;;
75920;SDS011;64600;44.062;2.986;2022-12-07T19:01:31;14.30;;;7.05;;
75920;SDS011;64600;44.062;2.986;2022-12-07T19:03:57;13.27;;;7.78;;
75920;SDS011;64600;44.062;2.986;2022-12-07T19:06:23;20.00;;;8.83;;
75920;SDS011;64600;44.062;2.986;2022-12-07T19:08:49;18.30;;;10.15;;
75920;SDS011;64600;44.062;2.986;2022-12-07T19:11:22;25.58;;;13.43;;
75920;SDS011;64600;44.062;2.986;2022-12-07T19:14:18;25.30;;;12.65;;
75920;SDS011;64600;44.062;2.986;2022-12-07T19:19:18;28.88;;;14.80;;
75920;SDS011;64600;44.062;2.986;2022-12-07T19:21:44;30.77;;;15.80;;
75920;SDS011;64600;44.062;2.986;2022-12-07T19:24:11;35.10;;;18.53;;
75920;SDS011;64600;44.062;2.986;2022-12-07T19:26:37;37.95;;;19.95;;
75920;SDS011;64600;44.062;2.986;2022-12-07T19:29:03;40.67;;;19.88;;
75920;SDS011;64600;44.062;2.986;2022-12-07T19:31:28;44.80;;;22.25;;
75920;SDS011;64600;44.062;2.986;2022-12-07T19:33:54;40.38;;;20.95;;
75920;SDS011;64600;44.062;2.986;2022-12-07T19:36:19;47.88;;;20.90;;
75920;SDS011;64600;44.062;2.986;2022-12-07T19:38:45;46.92;;;21.98;;
75920;SDS011;64600;44.062;2.986;2022-12-07T19:41:11;28.13;;;14.88;;
75920;SDS011;64600;44.062;2.986;2022-12-07T19:43:56;20.83;;;12.45;;
75920;SDS011;64600;44.062;2.986;2022-12-07T19:46:22;23.95;;;11.35;;
75920;SDS011;64600;44.062;2.986;2022-12-07T19:48:47;26.65;;;13.00;;
